createdAt,value
2022-08-03T00:00:33.624Z,17.24
2022-08-03T00:03:23.273Z,17.15
2022-08-03T00:06:14.741Z,17.12
2022-08-03T00:09:08.638Z,17.11
2022-08-03T00:11:50.226Z,17.05
2022-08-03T00:14:40.202Z,16.98
2022-08-03T00:17:52.311Z,16.92
2022-08-03T00:20:41.380Z,16.92
2022-08-03T00:23:50.960Z,16.96
2022-08-03T00:26:41.829Z,16.95
2022-08-03T00:30:00.001Z,16.90
2022-08-03T00:32:49.121Z,16.84
2022-08-03T00:35:46.535Z,16.79
2022-08-03T00:38:41.098Z,16.75
2022-08-03T00:41:31.340Z,16.70
2022-08-03T00:44:20.433Z,16.68
2022-08-03T00:47:10.853Z,16.74
2022-08-03T00:50:02.178Z,16.85
2022-08-03T00:52:54.212Z,16.83
2022-08-03T00:55:49.169Z,16.74
2022-08-03T00:58:38.293Z,16.65
2022-08-03T01:01:30.661Z,16.59
2022-08-03T01:04:22.227Z,16.54
2022-08-03T01:07:27.779Z,16.52
2022-08-03T01:10:26.604Z,16.49
2022-08-03T01:14:01.314Z,16.43
2022-08-03T01:16:44.363Z,16.37
2022-08-03T01:19:46.441Z,16.33
2022-08-03T01:22:51.699Z,16.29
2022-08-03T01:25:55.136Z,16.26
2022-08-03T01:29:01.559Z,16.21
2022-08-03T01:32:58.042Z,16.17
2022-08-03T01:35:17.096Z,16.14
2022-08-03T01:38:13.435Z,16.12
2022-08-03T01:41:07.468Z,16.11
2022-08-03T01:44:27.144Z,16.11
2022-08-03T01:47:19.484Z,16.10
2022-08-03T01:50:20.058Z,16.07
2022-08-03T01:53:11.507Z,16.04
2022-08-03T01:56:06.748Z,16.03
2022-08-03T01:58:59.732Z,16.11
2022-08-03T02:02:27.740Z,16.19
2022-08-03T02:05:01.559Z,16.17
2022-08-03T02:07:51.547Z,16.10
2022-08-03T02:10:43.404Z,16.04
2022-08-03T02:13:35.307Z,16.10
2022-08-03T02:16:25.933Z,16.26
2022-08-03T02:19:16.748Z,16.40
2022-08-03T02:22:10.797Z,16.45
2022-08-03T02:25:02.125Z,16.45
2022-08-03T02:27:55.289Z,16.39
2022-08-03T02:30:51.834Z,16.29
2022-08-03T02:33:41.205Z,16.20
2022-08-03T02:36:34.860Z,16.20
2022-08-03T02:39:26.926Z,16.19
2022-08-03T02:42:20.569Z,16.14
2022-08-03T02:45:16.793Z,16.06
2022-08-03T02:48:13.296Z,15.96
2022-08-03T02:51:04.461Z,15.90
2022-08-03T02:53:56.177Z,15.87
2022-08-03T02:56:46.887Z,15.88
2022-08-03T02:59:38.042Z,15.92
2022-08-03T03:02:28.998Z,15.95
2022-08-03T03:05:56.761Z,15.97
2022-08-03T03:08:34.264Z,15.90
2022-08-03T03:11:25.165Z,15.85
2022-08-03T03:14:33.621Z,15.82
2022-08-03T03:17:24.000Z,15.84
2022-08-03T03:20:29.393Z,15.88
2022-08-03T03:23:21.615Z,15.87
2022-08-03T03:26:13.136Z,15.82
2022-08-03T03:29:04.538Z,15.76
2022-08-03T03:31:54.174Z,15.72
2022-08-03T03:34:44.326Z,15.71
2022-08-03T03:37:33.383Z,15.74
2022-08-03T03:40:22.851Z,15.80
2022-08-03T03:43:13.053Z,15.84
2022-08-03T03:46:02.822Z,15.88
2022-08-03T03:48:52.510Z,15.93
2022-08-03T03:51:41.233Z,16.00
2022-08-03T03:54:41.082Z,16.04
2022-08-03T03:57:30.222Z,16.08
2022-08-03T04:00:22.387Z,16.13
2022-08-03T04:03:12.230Z,16.20
2022-08-03T04:06:21.773Z,16.30
2022-08-03T04:09:30.470Z,16.41
2022-08-03T04:12:22.758Z,16.63
2022-08-03T04:15:14.057Z,16.88
2022-08-03T04:18:08.664Z,17.09
2022-08-03T04:21:01.429Z,17.23
2022-08-03T04:23:55.033Z,17.29
2022-08-03T04:26:49.568Z,17.41
2022-08-03T04:29:48.550Z,17.53
2022-08-03T04:32:46.037Z,17.65
2022-08-03T04:35:54.743Z,17.66
2022-08-03T04:38:55.394Z,17.72
2022-08-03T04:42:07.718Z,17.83
2022-08-03T04:45:00.425Z,17.96
2022-08-03T04:47:51.512Z,18.06
2022-08-03T04:50:41.889Z,18.16
2022-08-03T04:53:31.075Z,18.23
2022-08-03T04:56:20.090Z,18.25
2022-08-03T04:59:11.972Z,18.33
2022-08-03T05:02:04.133Z,18.29
2022-08-03T05:04:53.049Z,18.25
2022-08-03T05:07:42.323Z,18.28
2022-08-03T05:10:31.445Z,18.37
2022-08-03T05:13:20.311Z,18.49
2022-08-03T05:16:09.586Z,18.58
2022-08-03T05:18:58.207Z,18.62
2022-08-03T05:21:52.536Z,18.71
2022-08-03T05:24:41.690Z,18.85
2022-08-03T05:27:30.662Z,18.93
2022-08-03T05:30:32.585Z,18.90
2022-08-03T05:33:23.360Z,18.92
2022-08-03T05:36:13.169Z,18.99
2022-08-03T05:39:04.449Z,19.19
2022-08-03T05:41:43.202Z,19.42
2022-08-03T05:44:33.537Z,19.64
2022-08-03T05:47:22.406Z,19.77
2022-08-03T05:50:18.412Z,19.78
2022-08-03T05:53:07.546Z,19.77
2022-08-03T05:56:13.116Z,19.85
2022-08-03T05:59:35.753Z,19.87
2022-08-03T06:02:17.658Z,19.86
2022-08-03T06:05:09.244Z,19.91
2022-08-03T06:07:58.130Z,20.02
2022-08-03T06:10:49.103Z,20.07
2022-08-03T06:13:38.357Z,20.18
2022-08-03T06:16:25.469Z,20.27
2022-08-03T06:19:14.469Z,20.41
2022-08-03T06:22:04.375Z,20.50
2022-08-03T06:24:54.718Z,20.44
2022-08-03T06:27:39.609Z,20.43
2022-08-03T06:30:31.950Z,20.43
2022-08-03T06:33:20.885Z,20.51
2022-08-03T06:36:10.012Z,20.64
2022-08-03T06:39:03.000Z,20.76
2022-08-03T06:41:53.282Z,20.83
2022-08-03T06:44:41.927Z,20.83
2022-08-03T06:51:00.432Z,21.04
2022-08-03T06:53:49.807Z,21.10
2022-08-03T06:56:39.472Z,21.12
2022-08-03T07:00:10.286Z,21.20
2022-08-03T07:02:40.269Z,21.38
2022-08-03T07:05:32.989Z,21.56
2022-08-03T07:08:33.542Z,21.75
2022-08-03T07:11:24.739Z,21.95
2022-08-03T07:14:13.903Z,22.12
2022-08-03T07:17:04.520Z,22.23
2022-08-03T07:19:56.149Z,22.33
2022-08-03T07:22:46.172Z,22.45
2022-08-03T07:25:35.121Z,22.57
2022-08-03T07:28:25.195Z,22.73
2022-08-03T07:31:13.762Z,22.82
2022-08-03T07:34:04.006Z,22.88
2022-08-03T07:36:53.105Z,23.02
2022-08-03T07:39:41.932Z,23.18
2022-08-03T07:42:31.758Z,23.33
2022-08-03T07:45:24.116Z,23.49
2022-08-03T07:48:07.595Z,23.67
2022-08-03T07:51:02.035Z,23.84
2022-08-03T07:53:50.735Z,24.01
2022-08-03T07:56:41.849Z,24.22
2022-08-03T07:59:56.764Z,24.37
2022-08-03T08:02:44.903Z,24.54
2022-08-03T08:05:33.777Z,24.63
2022-08-03T08:08:22.685Z,24.66
2022-08-03T08:11:11.746Z,24.77
2022-08-03T08:14:02.407Z,24.90
2022-08-03T08:16:51.414Z,24.98
2022-08-03T08:19:41.416Z,24.93
2022-08-03T08:22:43.362Z,24.86
2022-08-03T08:25:34.633Z,24.81
2022-08-03T08:28:32.541Z,24.71
2022-08-03T08:31:22.289Z,24.65
2022-08-03T08:34:10.994Z,24.62
2022-08-03T08:36:58.959Z,24.53
2022-08-03T08:39:47.918Z,24.45
2022-08-03T08:42:40.330Z,24.46
2022-08-03T08:45:34.140Z,24.49
2022-08-03T08:48:26.489Z,24.51
2022-08-03T08:51:17.980Z,24.56
2022-08-03T08:54:09.163Z,24.68
2022-08-03T08:57:16.245Z,24.82
2022-08-03T09:00:14.360Z,25.05
2022-08-03T09:03:05.808Z,25.24
2022-08-03T09:05:56.305Z,25.53
2022-08-03T09:08:45.985Z,25.77
2022-08-03T09:11:54.547Z,26.18
2022-08-03T09:15:00.906Z,26.80
2022-08-03T09:17:54.135Z,27.26
2022-08-03T09:20:34.530Z,27.64
2022-08-03T09:23:51.906Z,28.01
2022-08-03T09:26:31.908Z,28.52
2022-08-03T09:29:22.490Z,28.75
2022-08-03T09:32:12.723Z,28.90
2022-08-03T09:35:05.745Z,29.21
2022-08-03T09:38:14.869Z,29.53
2022-08-03T09:41:18.292Z,29.84
2022-08-03T09:44:07.838Z,30.26
2022-08-03T09:46:51.878Z,30.58
2022-08-03T09:49:55.860Z,30.65
2022-08-03T09:52:51.801Z,30.88
2022-08-03T09:56:34.095Z,30.98
2022-08-03T09:59:00.696Z,31.10
2022-08-03T10:01:49.606Z,30.85
2022-08-03T10:04:48.339Z,30.94
2022-08-03T10:07:47.636Z,31.24
2022-08-03T10:10:43.556Z,31.51
2022-08-03T10:13:32.584Z,31.77
2022-08-03T10:16:25.502Z,31.97
2022-08-03T10:19:15.485Z,32.17
2022-08-03T10:22:10.868Z,32.34
2022-08-03T10:25:03.322Z,32.48
2022-08-03T10:27:53.379Z,32.51
2022-08-03T10:30:50.337Z,32.55
2022-08-03T10:33:49.502Z,32.76
2022-08-03T10:36:42.449Z,32.79
2022-08-03T10:39:36.820Z,32.59
2022-08-03T10:42:30.715Z,32.53
2022-08-03T10:45:20.946Z,32.76
2022-08-03T10:48:10.445Z,32.95
2022-08-03T10:51:00.083Z,33.15
2022-08-03T10:53:54.751Z,33.19
2022-08-03T10:57:13.663Z,33.22
2022-08-03T11:00:11.730Z,33.36
2022-08-03T11:03:08.424Z,33.44
2022-08-03T11:06:18.365Z,33.56
2022-08-03T11:09:19.921Z,33.73
2022-08-03T11:12:22.360Z,33.76
2022-08-03T11:15:31.773Z,33.80
2022-08-03T11:18:20.661Z,33.76
2022-08-03T11:21:15.867Z,33.82
2022-08-03T11:24:07.700Z,33.88
2022-08-03T11:27:20.083Z,33.87
2022-08-03T11:30:27.659Z,33.61
2022-08-03T11:33:30.412Z,33.26
2022-08-03T11:36:32.439Z,33.23
2022-08-03T11:39:21.485Z,33.41
2022-08-03T11:42:47.784Z,33.56
2022-08-03T11:45:37.315Z,33.57
2022-08-03T11:48:29.015Z,33.63
2022-08-03T11:51:22.782Z,33.64
2022-08-03T11:54:11.590Z,33.63
2022-08-03T11:57:00.220Z,33.55
2022-08-03T11:59:49.239Z,33.48
2022-08-03T12:02:53.593Z,33.47
2022-08-03T12:05:51.202Z,33.48
2022-08-03T12:08:43.028Z,33.52
2022-08-03T12:11:32.606Z,33.58
2022-08-03T12:14:49.683Z,33.58
2022-08-03T12:17:34.439Z,33.43
2022-08-03T12:20:34.766Z,33.31
2022-08-03T12:23:14.578Z,33.22
2022-08-03T12:26:08.148Z,33.24
2022-08-03T12:28:57.358Z,33.25
2022-08-03T12:31:46.319Z,33.19
2022-08-03T12:34:47.858Z,33.11
2022-08-03T12:37:36.879Z,33.16
2022-08-03T12:40:28.357Z,33.09
2022-08-03T12:43:17.196Z,32.88
2022-08-03T12:46:11.921Z,32.80
2022-08-03T12:49:05.007Z,32.91
2022-08-03T12:52:00.781Z,32.78
2022-08-03T12:54:56.394Z,32.60
2022-08-03T12:57:45.195Z,32.18
2022-08-03T13:00:34.703Z,31.92
2022-08-03T13:03:39.496Z,31.80
2022-08-03T13:06:32.121Z,31.60
2022-08-03T13:09:20.790Z,31.71
2022-08-03T13:12:13.302Z,32.05
2022-08-03T13:15:01.906Z,32.09
2022-08-03T13:17:51.000Z,31.81
2022-08-03T13:20:39.776Z,31.71
2022-08-03T13:23:29.431Z,31.82
2022-08-03T13:26:23.270Z,31.79
2022-08-03T13:29:12.497Z,31.72
2022-08-03T13:32:01.760Z,31.54
2022-08-03T13:34:50.585Z,31.49
2022-08-03T13:37:42.332Z,31.43
2022-08-03T13:40:41.493Z,31.43
2022-08-03T13:43:31.293Z,31.60
2022-08-03T13:46:20.179Z,31.75
2022-08-03T13:49:09.177Z,31.79
2022-08-03T13:51:58.371Z,31.81
2022-08-03T13:54:47.713Z,31.77
2022-08-03T13:58:05.170Z,31.75
2022-08-03T14:00:47.991Z,31.79
2022-08-03T14:03:37.192Z,31.88
2022-08-03T14:06:25.987Z,32.00
2022-08-03T14:09:15.505Z,31.99
2022-08-03T14:12:08.578Z,31.89
2022-08-03T14:14:59.738Z,31.90
2022-08-03T14:17:50.311Z,31.95
2022-08-03T14:20:49.140Z,31.99
2022-08-03T14:23:43.072Z,31.95
2022-08-03T14:26:33.917Z,31.91
2022-08-03T14:29:22.804Z,31.89
2022-08-03T14:32:13.519Z,31.90
2022-08-03T14:35:02.603Z,31.94
2022-08-03T14:37:52.043Z,31.86
2022-08-03T14:40:41.355Z,31.71
2022-08-03T14:43:34.187Z,31.65
2022-08-03T14:46:23.494Z,31.65
2022-08-03T14:50:37.035Z,31.48
2022-08-03T14:52:21.023Z,31.10
2022-08-03T14:55:11.066Z,30.80
2022-08-03T14:58:02.399Z,30.56
2022-08-03T15:00:54.240Z,30.50
2022-08-03T15:03:43.766Z,30.45
2022-08-03T15:06:33.009Z,30.27
2022-08-03T15:09:23.810Z,29.96
2022-08-03T15:12:13.112Z,29.70
2022-08-03T15:15:01.888Z,29.60
2022-08-03T15:18:00.297Z,29.57
2022-08-03T15:20:50.354Z,29.54
2022-08-03T15:23:39.279Z,29.39
2022-08-03T15:26:34.211Z,29.27
2022-08-03T15:30:07.625Z,29.07
2022-08-03T15:32:35.414Z,28.85
2022-08-03T15:35:24.480Z,28.74
2022-08-03T15:38:13.397Z,28.64
2022-08-03T15:41:02.464Z,28.50
2022-08-03T15:43:52.283Z,28.35
2022-08-03T15:46:41.042Z,28.22
2022-08-03T15:49:30.390Z,28.08
2022-08-03T15:52:19.319Z,27.94
2022-08-03T15:55:10.666Z,27.77
2022-08-03T15:59:03.434Z,27.63
2022-08-03T16:01:19.266Z,27.46
2022-08-03T16:04:08.868Z,27.31
2022-08-03T16:06:57.828Z,27.19
2022-08-03T16:09:47.089Z,27.11
2022-08-03T16:12:36.375Z,27.07
2022-08-03T16:15:25.766Z,27.05
2022-08-03T16:18:14.513Z,27.02
2022-08-03T16:21:05.301Z,27.01
2022-08-03T16:23:59.956Z,27.03
2022-08-03T16:26:50.951Z,27.01
2022-08-03T16:29:39.701Z,26.98
2022-08-03T16:32:29.075Z,26.93
2022-08-03T16:35:19.309Z,26.89
2022-08-03T16:38:14.113Z,26.83
2022-08-03T16:41:07.821Z,26.77
2022-08-03T16:43:56.612Z,26.70
2022-08-03T16:46:45.662Z,26.65
2022-08-03T16:49:55.251Z,26.58
2022-08-03T16:52:47.038Z,26.56
2022-08-03T16:55:48.728Z,26.52
2022-08-03T16:58:44.545Z,26.45
2022-08-03T17:01:37.754Z,26.36
2022-08-03T17:04:27.530Z,26.30
2022-08-03T17:07:19.971Z,26.25
2022-08-03T17:10:12.412Z,26.16
2022-08-03T17:13:01.184Z,26.07
2022-08-03T17:15:58.161Z,25.97
2022-08-03T17:18:56.090Z,25.89
2022-08-03T17:21:56.314Z,25.79
2022-08-03T17:24:49.989Z,25.68
2022-08-03T17:28:48.900Z,25.58
2022-08-03T17:31:22.854Z,25.45
2022-08-03T17:34:18.178Z,25.30
2022-08-03T17:37:27.294Z,25.18
2022-08-03T17:40:17.950Z,25.06
2022-08-03T17:44:08.129Z,24.93
2022-08-03T17:46:16.976Z,24.82
2022-08-03T17:49:23.749Z,24.72
2022-08-03T17:52:21.577Z,24.59
2022-08-03T17:55:54.823Z,24.46
2022-08-03T17:58:31.906Z,24.34
2022-08-03T18:02:04.359Z,24.18
2022-08-03T18:04:57.360Z,24.01
2022-08-03T18:07:59.266Z,23.84
2022-08-03T18:10:55.742Z,23.68
2022-08-03T18:14:09.998Z,23.56
2022-08-03T18:17:10.244Z,23.45
2022-08-03T18:20:02.125Z,23.35
2022-08-03T18:22:58.404Z,23.25
2022-08-03T18:25:58.024Z,23.14
2022-08-03T18:28:51.371Z,23.04
2022-08-03T18:32:02.381Z,22.92
2022-08-03T18:34:54.045Z,22.80
2022-08-03T18:37:51.965Z,22.69
2022-08-03T18:40:48.556Z,22.58
2022-08-03T18:43:46.567Z,22.45
2022-08-03T18:46:45.909Z,22.30
2022-08-03T18:49:42.419Z,22.19
2022-08-03T18:52:45.782Z,22.08
2022-08-03T18:55:40.198Z,21.96
2022-08-03T18:59:02.258Z,21.85
2022-08-03T19:01:58.069Z,21.76
2022-08-03T19:04:53.811Z,21.68
2022-08-03T19:07:58.388Z,21.60
2022-08-03T19:11:00.547Z,21.51
2022-08-03T19:13:50.893Z,21.46
2022-08-03T19:16:44.172Z,21.42
2022-08-03T19:19:43.382Z,21.37
2022-08-03T19:22:34.890Z,21.30
2022-08-03T19:25:34.398Z,21.23
2022-08-03T19:28:29.919Z,21.18
2022-08-03T19:31:20.517Z,21.09
2022-08-03T19:34:10.526Z,21.08
2022-08-03T19:37:00.458Z,21.04
2022-08-03T19:39:56.502Z,20.98
2022-08-03T19:42:49.037Z,20.94
2022-08-03T19:46:04.881Z,20.94
2022-08-03T19:48:54.533Z,20.98
2022-08-03T19:52:01.255Z,20.89
2022-08-03T19:54:56.225Z,20.83
2022-08-03T19:57:49.340Z,20.79
2022-08-03T20:00:48.779Z,20.76
2022-08-03T20:03:43.298Z,20.67
2022-08-03T20:06:32.927Z,20.64
2022-08-03T20:09:21.747Z,20.67
2022-08-03T20:12:12.609Z,20.64
2022-08-03T20:14:52.598Z,20.58
2022-08-03T20:17:56.923Z,20.50
2022-08-03T20:20:52.010Z,20.42
2022-08-03T20:24:01.912Z,20.35
2022-08-03T20:26:53.383Z,20.27
2022-08-03T20:30:06.219Z,20.21
2022-08-03T20:32:55.153Z,20.18
2022-08-03T20:35:45.923Z,20.20
2022-08-03T20:38:43.674Z,20.17
2022-08-03T20:41:35.976Z,20.12
2022-08-03T20:44:25.924Z,20.07
2022-08-03T20:47:23.652Z,20.05
2022-08-03T20:50:14.448Z,20.06
2022-08-03T20:53:04.830Z,20.00
2022-08-03T20:56:02.242Z,19.93
2022-08-03T20:58:54.503Z,19.85
2022-08-03T21:01:44.395Z,19.78
2022-08-03T21:04:33.550Z,19.72
2022-08-03T21:07:23.848Z,19.69
2022-08-03T21:10:15.979Z,19.66
2022-08-03T21:13:17.637Z,19.65
2022-08-03T21:16:14.761Z,19.65
2022-08-03T21:19:05.407Z,19.64
2022-08-03T21:21:55.120Z,19.62
2022-08-03T21:24:45.663Z,19.58
2022-08-03T21:27:35.664Z,19.51
2022-08-03T21:30:27.887Z,19.52
2022-08-03T21:33:17.159Z,19.56
2022-08-03T21:36:01.280Z,19.59
2022-08-03T21:38:56.397Z,19.59
2022-08-03T21:41:46.344Z,19.55
2022-08-03T21:44:35.392Z,19.50
2022-08-03T21:47:25.657Z,19.50
2022-08-03T21:50:15.992Z,19.51
2022-08-03T21:53:06.765Z,19.54
2022-08-03T21:55:58.219Z,19.51
2022-08-03T21:58:51.108Z,19.51
2022-08-03T22:01:42.705Z,19.51
2022-08-03T22:04:53.052Z,19.49
2022-08-03T22:07:43.519Z,19.46
2022-08-03T22:10:32.681Z,19.44
2022-08-03T22:13:44.142Z,19.48
2022-08-03T22:16:31.151Z,19.53
2022-08-03T22:19:19.805Z,19.52
2022-08-03T22:22:13.243Z,19.53
2022-08-03T22:25:05.021Z,19.50
2022-08-03T22:27:54.851Z,19.46
2022-08-03T22:30:43.664Z,19.45
2022-08-03T22:33:34.542Z,19.46
2022-08-03T22:36:18.001Z,19.48
2022-08-03T22:39:07.551Z,19.48
2022-08-03T22:41:57.898Z,19.51
2022-08-03T22:44:48.747Z,19.54
2022-08-03T22:47:40.069Z,19.52
2022-08-03T22:50:32.660Z,19.49
2022-08-03T22:53:22.612Z,19.50
2022-08-03T22:56:12.534Z,19.48
2022-08-03T22:59:01.231Z,19.47
2022-08-03T23:02:20.910Z,19.47
2022-08-03T23:06:01.574Z,19.42
2022-08-03T23:08:30.849Z,19.38
2022-08-03T23:11:21.517Z,19.37
2022-08-03T23:14:12.459Z,19.33
2022-08-03T23:17:08.589Z,19.25
2022-08-03T23:20:01.683Z,19.15
2022-08-03T23:22:50.915Z,19.09
2022-08-03T23:25:41.514Z,19.00
2022-08-03T23:28:33.317Z,18.91
2022-08-03T23:31:22.860Z,18.85
2022-08-03T23:34:32.508Z,18.76
2022-08-03T23:37:21.580Z,18.71
2022-08-03T23:40:13.117Z,18.66
2022-08-03T23:43:03.316Z,18.61
2022-08-03T23:45:54.876Z,18.53
2022-08-03T23:48:43.839Z,18.47
2022-08-03T23:51:42.190Z,18.41
2022-08-03T23:54:39.575Z,18.36
2022-08-03T23:57:32.790Z,18.30
